sensor_id;sensor_type;location;lat;lon;timestamp;P1;durP1;ratioP1;P2;durP2;ratioP2
61741;SDS011;47650;49.848;9.620;2023-06-14T00:01:23;9.40;;;6.60;;
61741;SDS011;47650;49.848;9.620;2023-06-14T00:03:48;6.75;;;6.10;;
61741;SDS011;47650;49.848;9.620;2023-06-14T00:06:16;7.57;;;6.15;;
61741;SDS011;47650;49.848;9.620;2023-06-14T00:08:42;6.75;;;5.93;;
61741;SDS011;47650;49.848;9.620;2023-06-14T00:11:08;7.38;;;5.93;;
61741;SDS011;47650;49.848;9.620;2023-06-14T00:13:33;7.13;;;5.90;;
61741;SDS011;47650;49.848;9.620;2023-06-14T00:16:00;6.93;;;6.32;;
61741;SDS011;47650;49.848;9.620;2023-06-14T00:18:25;8.10;;;6.13;;
61741;SDS011;47650;49.848;9.620;2023-06-14T00:20:54;8.73;;;6.13;;
61741;SDS011;47650;49.848;9.620;2023-06-14T00:23:20;8.05;;;6.55;;
61741;SDS011;47650;49.848;9.620;2023-06-14T00:25:46;9.48;;;6.88;;
61741;SDS011;47650;49.848;9.620;2023-06-14T00:28:12;9.93;;;6.25;;
61741;SDS011;47650;49.848;9.620;2023-06-14T00:30:38;7.63;;;6.82;;
61741;SDS011;47650;49.848;9.620;2023-06-14T00:33:04;10.30;;;6.57;;
61741;SDS011;47650;49.848;9.620;2023-06-14T00:35:29;8.38;;;7.55;;
61741;SDS011;47650;49.848;9.620;2023-06-14T00:37:55;7.82;;;7.13;;
61741;SDS011;47650;49.848;9.620;2023-06-14T00:40:20;7.50;;;6.68;;
61741;SDS011;47650;49.848;9.620;2023-06-14T00:42:46;8.50;;;7.00;;
61741;SDS011;47650;49.848;9.620;2023-06-14T00:45:13;9.02;;;7.20;;
61741;SDS011;47650;49.848;9.620;2023-06-14T00:47:39;9.00;;;7.00;;
61741;SDS011;47650;49.848;9.620;2023-06-14T00:50:06;8.07;;;6.68;;
61741;SDS011;47650;49.848;9.620;2023-06-14T00:52:34;7.00;;;6.30;;
61741;SDS011;47650;49.848;9.620;2023-06-14T00:54:59;8.32;;;7.53;;
61741;SDS011;47650;49.848;9.620;2023-06-14T00:57:28;8.93;;;7.35;;
61741;SDS011;47650;49.848;9.620;2023-06-14T00:59:54;8.63;;;7.75;;
61741;SDS011;47650;49.848;9.620;2023-06-14T01:02:21;8.32;;;7.47;;
61741;SDS011;47650;49.848;9.620;2023-06-14T01:04:48;8.75;;;7.88;;
61741;SDS011;47650;49.848;9.620;2023-06-14T01:12:50;8.20;;;7.32;;
61741;SDS011;47650;49.848;9.620;2023-06-14T01:15:23;9.00;;;7.25;;
61741;SDS011;47650;49.848;9.620;2023-06-14T01:17:49;7.85;;;7.00;;
61741;SDS011;47650;49.848;9.620;2023-06-14T01:20:16;8.10;;;7.35;;
61741;SDS011;47650;49.848;9.620;2023-06-14T01:22:51;8.55;;;6.93;;
61741;SDS011;47650;49.848;9.620;2023-06-14T01:25:19;9.50;;;7.63;;
61741;SDS011;47650;49.848;9.620;2023-06-14T01:27:46;9.43;;;7.80;;
61741;SDS011;47650;49.848;9.620;2023-06-14T01:30:15;8.50;;;7.60;;
61741;SDS011;47650;49.848;9.620;2023-06-14T01:32:41;8.07;;;7.28;;
61741;SDS011;47650;49.848;9.620;2023-06-14T01:35:11;14.52;;;7.97;;
61741;SDS011;47650;49.848;9.620;2023-06-14T01:37:36;10.52;;;8.23;;
61741;SDS011;47650;49.848;9.620;2023-06-14T01:40:03;8.02;;;7.22;;
61741;SDS011;47650;49.848;9.620;2023-06-14T01:42:34;8.30;;;7.50;;
61741;SDS011;47650;49.848;9.620;2023-06-14T01:45:01;7.55;;;6.82;;
61741;SDS011;47650;49.848;9.620;2023-06-14T01:47:28;9.60;;;7.88;;
61741;SDS011;47650;49.848;9.620;2023-06-14T01:49:55;8.90;;;8.00;;
61741;SDS011;47650;49.848;9.620;2023-06-14T01:52:21;8.95;;;8.05;;
61741;SDS011;47650;49.848;9.620;2023-06-14T01:54:47;10.70;;;7.90;;
61741;SDS011;47650;49.848;9.620;2023-06-14T01:57:14;9.07;;;7.97;;
61741;SDS011;47650;49.848;9.620;2023-06-14T01:59:41;13.48;;;8.35;;
61741;SDS011;47650;49.848;9.620;2023-06-14T02:02:07;9.40;;;7.70;;
61741;SDS011;47650;49.848;9.620;2023-06-14T02:04:32;8.68;;;7.88;;
61741;SDS011;47650;49.848;9.620;2023-06-14T02:06:58;8.88;;;8.05;;
61741;SDS011;47650;49.848;9.620;2023-06-14T02:09:23;8.30;;;7.60;;
61741;SDS011;47650;49.848;9.620;2023-06-14T02:11:49;9.20;;;8.18;;
61741;SDS011;47650;49.848;9.620;2023-06-14T02:14:14;9.40;;;7.82;;
61741;SDS011;47650;49.848;9.620;2023-06-14T02:16:41;7.63;;;6.93;;
61741;SDS011;47650;49.848;9.620;2023-06-14T02:19:18;8.27;;;7.38;;
61741;SDS011;47650;49.848;9.620;2023-06-14T02:21:45;10.73;;;7.57;;
61741;SDS011;47650;49.848;9.620;2023-06-14T02:24:12;9.25;;;7.55;;
61741;SDS011;47650;49.848;9.620;2023-06-14T02:26:38;11.55;;;7.75;;
61741;SDS011;47650;49.848;9.620;2023-06-14T02:29:04;8.45;;;7.72;;
61741;SDS011;47650;49.848;9.620;2023-06-14T02:31:32;8.77;;;7.88;;
61741;SDS011;47650;49.848;9.620;2023-06-14T02:33:59;10.95;;;8.05;;
61741;SDS011;47650;49.848;9.620;2023-06-14T02:36:24;9.05;;;8.10;;
61741;SDS011;47650;49.848;9.620;2023-06-14T02:38:51;8.60;;;7.72;;
61741;SDS011;47650;49.848;9.620;2023-06-14T02:41:17;10.52;;;8.63;;
61741;SDS011;47650;49.848;9.620;2023-06-14T02:43:43;10.60;;;7.78;;
61741;SDS011;47650;49.848;9.620;2023-06-14T02:46:08;9.13;;;8.13;;
61741;SDS011;47650;49.848;9.620;2023-06-14T02:48:34;8.93;;;8.02;;
61741;SDS011;47650;49.848;9.620;2023-06-14T02:51:00;8.57;;;7.75;;
61741;SDS011;47650;49.848;9.620;2023-06-14T02:53:25;9.57;;;7.85;;
61741;SDS011;47650;49.848;9.620;2023-06-14T02:55:51;8.60;;;7.80;;
61741;SDS011;47650;49.848;9.620;2023-06-14T02:58:17;8.68;;;7.88;;
61741;SDS011;47650;49.848;9.620;2023-06-14T03:00:44;11.02;;;8.43;;
61741;SDS011;47650;49.848;9.620;2023-06-14T03:03:09;9.38;;;8.13;;
61741;SDS011;47650;49.848;9.620;2023-06-14T03:05:40;9.82;;;8.82;;
61741;SDS011;47650;49.848;9.620;2023-06-14T03:08:13;8.55;;;7.78;;
61741;SDS011;47650;49.848;9.620;2023-06-14T03:10:44;9.07;;;8.17;;
61741;SDS011;47650;49.848;9.620;2023-06-14T03:13:12;10.40;;;8.60;;
61741;SDS011;47650;49.848;9.620;2023-06-14T03:15:38;10.75;;;8.45;;
61741;SDS011;47650;49.848;9.620;2023-06-14T03:18:10;8.60;;;7.80;;
61741;SDS011;47650;49.848;9.620;2023-06-14T03:20:37;9.10;;;8.20;;
61741;SDS011;47650;49.848;9.620;2023-06-14T03:23:03;14.35;;;8.23;;
61741;SDS011;47650;49.848;9.620;2023-06-14T03:25:29;11.50;;;8.02;;
61741;SDS011;47650;49.848;9.620;2023-06-14T03:27:55;9.40;;;7.75;;
61741;SDS011;47650;49.848;9.620;2023-06-14T03:30:21;9.23;;;7.68;;
61741;SDS011;47650;49.848;9.620;2023-06-14T03:32:47;8.63;;;7.55;;
61741;SDS011;47650;49.848;9.620;2023-06-14T03:35:13;9.98;;;7.65;;
61741;SDS011;47650;49.848;9.620;2023-06-14T03:37:45;9.48;;;8.18;;
61741;SDS011;47650;49.848;9.620;2023-06-14T03:40:14;9.82;;;8.73;;
61741;SDS011;47650;49.848;9.620;2023-06-14T03:42:41;8.60;;;7.63;;
61741;SDS011;47650;49.848;9.620;2023-06-14T03:45:06;10.68;;;7.78;;
61741;SDS011;47650;49.848;9.620;2023-06-14T03:47:32;9.60;;;7.90;;
61741;SDS011;47650;49.848;9.620;2023-06-14T03:50:00;8.35;;;6.95;;
61741;SDS011;47650;49.848;9.620;2023-06-14T03:52:26;9.02;;;7.72;;
61741;SDS011;47650;49.848;9.620;2023-06-14T03:54:51;10.00;;;7.72;;
61741;SDS011;47650;49.848;9.620;2023-06-14T03:57:18;7.85;;;6.97;;
61741;SDS011;47650;49.848;9.620;2023-06-14T03:59:45;10.68;;;7.32;;
61741;SDS011;47650;49.848;9.620;2023-06-14T04:02:10;10.18;;;7.57;;
61741;SDS011;47650;49.848;9.620;2023-06-14T04:04:35;11.55;;;7.30;;
61741;SDS011;47650;49.848;9.620;2023-06-14T04:07:01;9.65;;;8.07;;
61741;SDS011;47650;49.848;9.620;2023-06-14T04:09:31;10.60;;;7.15;;
61741;SDS011;47650;49.848;9.620;2023-06-14T04:11:57;10.38;;;7.10;;
61741;SDS011;47650;49.848;9.620;2023-06-14T04:14:22;9.00;;;7.18;;
61741;SDS011;47650;49.848;9.620;2023-06-14T04:16:48;7.63;;;6.80;;
61741;SDS011;47650;49.848;9.620;2023-06-14T04:19:18;10.32;;;6.90;;
61741;SDS011;47650;49.848;9.620;2023-06-14T04:21:44;10.07;;;6.68;;
61741;SDS011;47650;49.848;9.620;2023-06-14T04:24:09;10.27;;;7.38;;
61741;SDS011;47650;49.848;9.620;2023-06-14T04:26:38;11.55;;;6.93;;
61741;SDS011;47650;49.848;9.620;2023-06-14T04:29:09;9.38;;;6.82;;
61741;SDS011;47650;49.848;9.620;2023-06-14T04:31:42;8.55;;;7.50;;
61741;SDS011;47650;49.848;9.620;2023-06-14T04:34:08;7.88;;;6.45;;
61741;SDS011;47650;49.848;9.620;2023-06-14T04:36:33;7.63;;;6.82;;
61741;SDS011;47650;49.848;9.620;2023-06-14T04:39:01;10.20;;;7.13;;
61741;SDS011;47650;49.848;9.620;2023-06-14T04:41:28;7.72;;;6.78;;
61741;SDS011;47650;49.848;9.620;2023-06-14T04:43:56;9.73;;;7.10;;
61741;SDS011;47650;49.848;9.620;2023-06-14T04:46:28;9.95;;;6.78;;
61741;SDS011;47650;49.848;9.620;2023-06-14T04:48:54;7.43;;;6.65;;
61741;SDS011;47650;49.848;9.620;2023-06-14T04:51:20;7.53;;;6.25;;
61741;SDS011;47650;49.848;9.620;2023-06-14T04:53:47;9.13;;;6.80;;
61741;SDS011;47650;49.848;9.620;2023-06-14T04:56:14;7.28;;;6.35;;
61741;SDS011;47650;49.848;9.620;2023-06-14T04:58:40;7.57;;;6.07;;
61741;SDS011;47650;49.848;9.620;2023-06-14T05:01:05;7.93;;;5.97;;
61741;SDS011;47650;49.848;9.620;2023-06-14T05:03:31;9.65;;;6.30;;
61741;SDS011;47650;49.848;9.620;2023-06-14T05:05:57;7.78;;;6.55;;
61741;SDS011;47650;49.848;9.620;2023-06-14T05:08:23;8.27;;;6.00;;
61741;SDS011;47650;49.848;9.620;2023-06-14T05:10:49;7.15;;;5.45;;
61741;SDS011;47650;49.848;9.620;2023-06-14T05:13:17;6.82;;;5.88;;
61741;SDS011;47650;49.848;9.620;2023-06-14T05:15:42;6.75;;;5.55;;
61741;SDS011;47650;49.848;9.620;2023-06-14T05:18:08;8.30;;;6.28;;
61741;SDS011;47650;49.848;9.620;2023-06-14T05:20:34;8.93;;;5.10;;
61741;SDS011;47650;49.848;9.620;2023-06-14T05:23:02;11.60;;;6.20;;
61741;SDS011;47650;49.848;9.620;2023-06-14T05:25:28;14.45;;;5.80;;
61741;SDS011;47650;49.848;9.620;2023-06-14T05:27:56;11.27;;;5.55;;
61741;SDS011;47650;49.848;9.620;2023-06-14T05:30:21;11.60;;;5.18;;
61741;SDS011;47650;49.848;9.620;2023-06-14T05:32:46;10.52;;;4.88;;
61741;SDS011;47650;49.848;9.620;2023-06-14T05:35:11;9.98;;;5.30;;
61741;SDS011;47650;49.848;9.620;2023-06-14T05:37:37;10.57;;;5.25;;
61741;SDS011;47650;49.848;9.620;2023-06-14T05:40:03;8.40;;;5.25;;
61741;SDS011;47650;49.848;9.620;2023-06-14T05:42:31;11.85;;;5.30;;
61741;SDS011;47650;49.848;9.620;2023-06-14T05:44:56;10.40;;;5.00;;
61741;SDS011;47650;49.848;9.620;2023-06-14T05:47:21;9.85;;;5.80;;
61741;SDS011;47650;49.848;9.620;2023-06-14T05:49:48;7.53;;;4.75;;
61741;SDS011;47650;49.848;9.620;2023-06-14T05:52:13;8.07;;;5.07;;
61741;SDS011;47650;49.848;9.620;2023-06-14T05:54:38;8.25;;;4.80;;
61741;SDS011;47650;49.848;9.620;2023-06-14T05:57:04;7.53;;;4.72;;
61741;SDS011;47650;49.848;9.620;2023-06-14T05:59:31;8.18;;;4.45;;
61741;SDS011;47650;49.848;9.620;2023-06-14T06:01:56;7.93;;;4.57;;
61741;SDS011;47650;49.848;9.620;2023-06-14T06:04:22;5.35;;;4.25;;
61741;SDS011;47650;49.848;9.620;2023-06-14T06:06:48;5.15;;;4.22;;
61741;SDS011;47650;49.848;9.620;2023-06-14T06:09:13;4.90;;;4.25;;
61741;SDS011;47650;49.848;9.620;2023-06-14T06:11:41;8.88;;;4.40;;
61741;SDS011;47650;49.848;9.620;2023-06-14T06:14:07;5.72;;;4.55;;
61741;SDS011;47650;49.848;9.620;2023-06-14T06:16:32;6.63;;;4.93;;
61741;SDS011;47650;49.848;9.620;2023-06-14T06:18:58;8.05;;;4.10;;
61741;SDS011;47650;49.848;9.620;2023-06-14T06:21:24;7.13;;;3.90;;
61741;SDS011;47650;49.848;9.620;2023-06-14T06:23:49;7.55;;;4.07;;
61741;SDS011;47650;49.848;9.620;2023-06-14T06:26:15;7.28;;;4.28;;
61741;SDS011;47650;49.848;9.620;2023-06-14T06:28:42;7.35;;;4.10;;
61741;SDS011;47650;49.848;9.620;2023-06-14T06:31:09;5.43;;;4.22;;
61741;SDS011;47650;49.848;9.620;2023-06-14T06:33:36;7.75;;;4.20;;
61741;SDS011;47650;49.848;9.620;2023-06-14T06:36:01;7.22;;;3.95;;
61741;SDS011;47650;49.848;9.620;2023-06-14T06:38:29;6.93;;;4.70;;
61741;SDS011;47650;49.848;9.620;2023-06-14T06:40:54;5.53;;;4.10;;
61741;SDS011;47650;49.848;9.620;2023-06-14T06:43:21;5.43;;;4.40;;
61741;SDS011;47650;49.848;9.620;2023-06-14T06:45:46;6.93;;;4.18;;
61741;SDS011;47650;49.848;9.620;2023-06-14T06:48:12;5.90;;;3.90;;
61741;SDS011;47650;49.848;9.620;2023-06-14T06:50:38;5.90;;;4.45;;
61741;SDS011;47650;49.848;9.620;2023-06-14T06:53:03;4.97;;;4.40;;
61741;SDS011;47650;49.848;9.620;2023-06-14T06:55:28;9.18;;;4.20;;
61741;SDS011;47650;49.848;9.620;2023-06-14T06:57:55;5.20;;;4.20;;
61741;SDS011;47650;49.848;9.620;2023-06-14T07:00:23;6.07;;;4.00;;
61741;SDS011;47650;49.848;9.620;2023-06-14T07:02:48;4.47;;;3.75;;
61741;SDS011;47650;49.848;9.620;2023-06-14T07:05:15;5.93;;;3.63;;
61741;SDS011;47650;49.848;9.620;2023-06-14T07:07:41;6.50;;;4.10;;
61741;SDS011;47650;49.848;9.620;2023-06-14T07:10:09;5.07;;;3.90;;
61741;SDS011;47650;49.848;9.620;2023-06-14T07:12:40;5.72;;;3.90;;
61741;SDS011;47650;49.848;9.620;2023-06-14T07:15:08;6.35;;;4.00;;
61741;SDS011;47650;49.848;9.620;2023-06-14T07:17:34;6.03;;;3.55;;
61741;SDS011;47650;49.848;9.620;2023-06-14T07:20:00;6.47;;;4.05;;
61741;SDS011;47650;49.848;9.620;2023-06-14T07:22:37;9.57;;;4.20;;
61741;SDS011;47650;49.848;9.620;2023-06-14T07:25:11;4.88;;;3.63;;
61741;SDS011;47650;49.848;9.620;2023-06-14T07:27:41;7.47;;;3.70;;
61741;SDS011;47650;49.848;9.620;2023-06-14T07:30:07;9.60;;;4.72;;
61741;SDS011;47650;49.848;9.620;2023-06-14T07:32:36;5.55;;;3.70;;
61741;SDS011;47650;49.848;9.620;2023-06-14T07:35:01;6.80;;;3.60;;
61741;SDS011;47650;49.848;9.620;2023-06-14T07:37:28;7.03;;;3.65;;
61741;SDS011;47650;49.848;9.620;2023-06-14T07:39:55;5.75;;;3.92;;
61741;SDS011;47650;49.848;9.620;2023-06-14T07:42:21;14.48;;;3.72;;
61741;SDS011;47650;49.848;9.620;2023-06-14T07:44:52;5.65;;;3.30;;
61741;SDS011;47650;49.848;9.620;2023-06-14T07:47:19;6.32;;;3.83;;
61741;SDS011;47650;49.848;9.620;2023-06-14T07:49:45;7.88;;;4.18;;
61741;SDS011;47650;49.848;9.620;2023-06-14T07:52:16;5.13;;;4.00;;
61741;SDS011;47650;49.848;9.620;2023-06-14T07:54:42;6.68;;;3.70;;
61741;SDS011;47650;49.848;9.620;2023-06-14T07:57:09;6.20;;;3.72;;
61741;SDS011;47650;49.848;9.620;2023-06-14T07:59:35;8.45;;;4.28;;
61741;SDS011;47650;49.848;9.620;2023-06-14T08:02:02;6.45;;;3.72;;
61741;SDS011;47650;49.848;9.620;2023-06-14T08:04:27;7.82;;;3.85;;
61741;SDS011;47650;49.848;9.620;2023-06-14T08:06:53;6.50;;;4.22;;
61741;SDS011;47650;49.848;9.620;2023-06-14T08:09:18;6.13;;;3.80;;
61741;SDS011;47650;49.848;9.620;2023-06-14T08:11:45;6.50;;;3.78;;
61741;SDS011;47650;49.848;9.620;2023-06-14T08:14:10;8.77;;;4.00;;
61741;SDS011;47650;49.848;9.620;2023-06-14T08:16:36;7.45;;;4.20;;
61741;SDS011;47650;49.848;9.620;2023-06-14T08:19:03;7.55;;;3.88;;
61741;SDS011;47650;49.848;9.620;2023-06-14T08:21:29;7.68;;;3.60;;
61741;SDS011;47650;49.848;9.620;2023-06-14T08:23:54;8.32;;;3.15;;
61741;SDS011;47650;49.848;9.620;2023-06-14T08:26:22;6.82;;;3.33;;
61741;SDS011;47650;49.848;9.620;2023-06-14T08:28:47;3.42;;;3.13;;
61741;SDS011;47650;49.848;9.620;2023-06-14T08:31:12;4.88;;;3.40;;
61741;SDS011;47650;49.848;9.620;2023-06-14T08:33:38;4.28;;;3.25;;
61741;SDS011;47650;49.848;9.620;2023-06-14T08:36:07;8.68;;;3.58;;
61741;SDS011;47650;49.848;9.620;2023-06-14T08:38:33;6.13;;;3.30;;
61741;SDS011;47650;49.848;9.620;2023-06-14T08:40:58;4.68;;;3.42;;
61741;SDS011;47650;49.848;9.620;2023-06-14T08:43:27;6.95;;;3.05;;
61741;SDS011;47650;49.848;9.620;2023-06-14T08:45:54;5.78;;;3.22;;
61741;SDS011;47650;49.848;9.620;2023-06-14T08:48:25;6.10;;;3.38;;
61741;SDS011;47650;49.848;9.620;2023-06-14T08:50:53;4.55;;;3.50;;
61741;SDS011;47650;49.848;9.620;2023-06-14T08:53:27;6.47;;;3.35;;
61741;SDS011;47650;49.848;9.620;2023-06-14T08:55:56;6.97;;;3.30;;
61741;SDS011;47650;49.848;9.620;2023-06-14T08:58:25;4.47;;;3.17;;
61741;SDS011;47650;49.848;9.620;2023-06-14T09:00:50;3.97;;;3.15;;
61741;SDS011;47650;49.848;9.620;2023-06-14T09:03:18;5.28;;;4.60;;
61741;SDS011;47650;49.848;9.620;2023-06-14T09:05:45;5.82;;;5.00;;
61741;SDS011;47650;49.848;9.620;2023-06-14T09:08:12;7.20;;;4.75;;
61741;SDS011;47650;49.848;9.620;2023-06-14T09:10:39;5.97;;;4.88;;
61741;SDS011;47650;49.848;9.620;2023-06-14T09:13:07;7.07;;;6.43;;
61741;SDS011;47650;49.848;9.620;2023-06-14T09:15:32;6.88;;;6.25;;
61741;SDS011;47650;49.848;9.620;2023-06-14T09:18:00;7.50;;;6.85;;
61741;SDS011;47650;49.848;9.620;2023-06-14T09:20:28;7.72;;;5.13;;
61741;SDS011;47650;49.848;9.620;2023-06-14T09:22:55;6.55;;;5.45;;
61741;SDS011;47650;49.848;9.620;2023-06-14T09:25:21;21.63;;;20.40;;
61741;SDS011;47650;49.848;9.620;2023-06-14T09:27:51;13.85;;;12.90;;
61741;SDS011;47650;49.848;9.620;2023-06-14T09:30:19;15.88;;;8.20;;
61741;SDS011;47650;49.848;9.620;2023-06-14T09:32:45;4.85;;;2.97;;
61741;SDS011;47650;49.848;9.620;2023-06-14T09:35:12;5.28;;;3.42;;
61741;SDS011;47650;49.848;9.620;2023-06-14T09:37:38;5.68;;;3.13;;
61741;SDS011;47650;49.848;9.620;2023-06-14T09:40:04;8.32;;;7.65;;
61741;SDS011;47650;49.848;9.620;2023-06-14T09:42:32;4.18;;;3.25;;
61741;SDS011;47650;49.848;9.620;2023-06-14T09:45:00;7.70;;;6.95;;
61741;SDS011;47650;49.848;9.620;2023-06-14T09:47:27;7.32;;;3.80;;
61741;SDS011;47650;49.848;9.620;2023-06-14T09:49:52;9.07;;;8.20;;
61741;SDS011;47650;49.848;9.620;2023-06-14T09:52:20;9.00;;;8.40;;
61741;SDS011;47650;49.848;9.620;2023-06-14T09:54:46;9.05;;;8.13;;
61741;SDS011;47650;49.848;9.620;2023-06-14T09:57:14;7.22;;;6.63;;
61741;SDS011;47650;49.848;9.620;2023-06-14T09:59:43;8.13;;;7.35;;
61741;SDS011;47650;49.848;9.620;2023-06-14T10:02:13;6.97;;;6.45;;
61741;SDS011;47650;49.848;9.620;2023-06-14T10:04:48;7.70;;;7.10;;
61741;SDS011;47650;49.848;9.620;2023-06-14T10:07:22;5.57;;;3.15;;
61741;SDS011;47650;49.848;9.620;2023-06-14T10:09:52;7.65;;;6.95;;
61741;SDS011;47650;49.848;9.620;2023-06-14T10:12:19;5.95;;;5.18;;
61741;SDS011;47650;49.848;9.620;2023-06-14T10:14:49;8.25;;;3.50;;
61741;SDS011;47650;49.848;9.620;2023-06-14T10:17:24;4.30;;;3.03;;
61741;SDS011;47650;49.848;9.620;2023-06-14T10:19:57;3.72;;;2.78;;
61741;SDS011;47650;49.848;9.620;2023-06-14T10:22:49;7.25;;;3.17;;
61741;SDS011;47650;49.848;9.620;2023-06-14T10:25:29;7.45;;;4.80;;
61741;SDS011;47650;49.848;9.620;2023-06-14T10:31:00;4.50;;;2.80;;
61741;SDS011;47650;49.848;9.620;2023-06-14T10:33:30;3.38;;;3.08;;
61741;SDS011;47650;49.848;9.620;2023-06-14T10:36:07;5.82;;;2.90;;
61741;SDS011;47650;49.848;9.620;2023-06-14T10:39:01;4.47;;;3.03;;
61741;SDS011;47650;49.848;9.620;2023-06-14T10:41:50;3.90;;;2.75;;
61741;SDS011;47650;49.848;9.620;2023-06-14T10:46:49;6.38;;;4.50;;
61741;SDS011;47650;49.848;9.620;2023-06-14T10:49:19;5.88;;;4.60;;
61741;SDS011;47650;49.848;9.620;2023-06-14T10:51:45;9.77;;;5.10;;
61741;SDS011;47650;49.848;9.620;2023-06-14T10:56:51;3.88;;;2.63;;
61741;SDS011;47650;49.848;9.620;2023-06-14T10:59:18;3.63;;;2.60;;
61741;SDS011;47650;49.848;9.620;2023-06-14T11:04:50;6.25;;;2.97;;
61741;SDS011;47650;49.848;9.620;2023-06-14T11:12:55;7.10;;;4.72;;
61741;SDS011;47650;49.848;9.620;2023-06-14T11:15:23;5.43;;;4.80;;
61741;SDS011;47650;49.848;9.620;2023-06-14T11:17:53;5.40;;;4.88;;
61741;SDS011;47650;49.848;9.620;2023-06-14T11:20:18;3.70;;;2.47;;
61741;SDS011;47650;49.848;9.620;2023-06-14T11:22:46;5.13;;;3.00;;
61741;SDS011;47650;49.848;9.620;2023-06-14T11:25:12;4.82;;;3.15;;
61741;SDS011;47650;49.848;9.620;2023-06-14T11:27:37;4.43;;;3.03;;
61741;SDS011;47650;49.848;9.620;2023-06-14T11:30:02;5.80;;;3.83;;
61741;SDS011;47650;49.848;9.620;2023-06-14T11:32:32;4.65;;;4.00;;
61741;SDS011;47650;49.848;9.620;2023-06-14T11:34:57;4.40;;;4.00;;
61741;SDS011;47650;49.848;9.620;2023-06-14T11:37:25;5.90;;;4.07;;
61741;SDS011;47650;49.848;9.620;2023-06-14T11:39:51;4.53;;;3.80;;
61741;SDS011;47650;49.848;9.620;2023-06-14T11:42:16;4.33;;;3.83;;
61741;SDS011;47650;49.848;9.620;2023-06-14T11:44:45;5.10;;;3.95;;
61741;SDS011;47650;49.848;9.620;2023-06-14T11:47:12;5.80;;;3.97;;
61741;SDS011;47650;49.848;9.620;2023-06-14T11:49:39;4.68;;;3.38;;
61741;SDS011;47650;49.848;9.620;2023-06-14T11:52:04;4.75;;;3.80;;
61741;SDS011;47650;49.848;9.620;2023-06-14T11:54:31;4.93;;;3.97;;
61741;SDS011;47650;49.848;9.620;2023-06-14T11:56:58;4.72;;;3.75;;
61741;SDS011;47650;49.848;9.620;2023-06-14T11:59:24;5.30;;;3.03;;
61741;SDS011;47650;49.848;9.620;2023-06-14T12:01:50;4.15;;;3.78;;
61741;SDS011;47650;49.848;9.620;2023-06-14T12:04:28;4.82;;;3.58;;
61741;SDS011;47650;49.848;9.620;2023-06-14T12:06:54;4.60;;;4.07;;
61741;SDS011;47650;49.848;9.620;2023-06-14T12:09:20;4.50;;;3.63;;
61741;SDS011;47650;49.848;9.620;2023-06-14T12:11:48;5.53;;;3.88;;
61741;SDS011;47650;49.848;9.620;2023-06-14T12:14:14;3.30;;;3.08;;
61741;SDS011;47650;49.848;9.620;2023-06-14T12:16:39;4.18;;;2.95;;
61741;SDS011;47650;49.848;9.620;2023-06-14T12:19:11;6.28;;;3.30;;
61741;SDS011;47650;49.848;9.620;2023-06-14T12:21:41;4.20;;;3.22;;
61741;SDS011;47650;49.848;9.620;2023-06-14T12:24:08;8.13;;;3.28;;
61741;SDS011;47650;49.848;9.620;2023-06-14T12:26:33;3.42;;;3.10;;
61741;SDS011;47650;49.848;9.620;2023-06-14T12:29:04;3.83;;;3.05;;
61741;SDS011;47650;49.848;9.620;2023-06-14T12:31:30;4.50;;;2.80;;
61741;SDS011;47650;49.848;9.620;2023-06-14T12:33:56;6.88;;;2.80;;
61741;SDS011;47650;49.848;9.620;2023-06-14T12:36:21;2.93;;;2.63;;
61741;SDS011;47650;49.848;9.620;2023-06-14T12:38:46;4.20;;;2.70;;
61741;SDS011;47650;49.848;9.620;2023-06-14T12:41:11;5.07;;;2.78;;
61741;SDS011;47650;49.848;9.620;2023-06-14T12:43:39;3.17;;;2.72;;
61741;SDS011;47650;49.848;9.620;2023-06-14T12:46:04;2.67;;;2.15;;
61741;SDS011;47650;49.848;9.620;2023-06-14T12:48:30;2.95;;;2.63;;
61741;SDS011;47650;49.848;9.620;2023-06-14T12:50:56;4.40;;;2.70;;
61741;SDS011;47650;49.848;9.620;2023-06-14T12:53:24;4.82;;;2.60;;
61741;SDS011;47650;49.848;9.620;2023-06-14T12:55:49;6.45;;;2.88;;
61741;SDS011;47650;49.848;9.620;2023-06-14T12:58:14;3.43;;;2.40;;
61741;SDS011;47650;49.848;9.620;2023-06-14T13:00:41;4.18;;;2.33;;
61741;SDS011;47650;49.848;9.620;2023-06-14T13:03:07;7.70;;;2.85;;
61741;SDS011;47650;49.848;9.620;2023-06-14T13:05:35;3.63;;;2.70;;
61741;SDS011;47650;49.848;9.620;2023-06-14T13:08:06;5.28;;;2.80;;
61741;SDS011;47650;49.848;9.620;2023-06-14T13:10:33;5.22;;;3.00;;
61741;SDS011;47650;49.848;9.620;2023-06-14T13:12:59;3.60;;;2.85;;
61741;SDS011;47650;49.848;9.620;2023-06-14T13:15:25;3.40;;;3.10;;
61741;SDS011;47650;49.848;9.620;2023-06-14T13:17:50;4.43;;;3.17;;
61741;SDS011;47650;49.848;9.620;2023-06-14T13:20:17;3.83;;;3.42;;
61741;SDS011;47650;49.848;9.620;2023-06-14T13:22:42;3.90;;;2.87;;
61741;SDS011;47650;49.848;9.620;2023-06-14T13:25:08;5.72;;;2.70;;
61741;SDS011;47650;49.848;9.620;2023-06-14T13:27:33;5.88;;;3.10;;
61741;SDS011;47650;49.848;9.620;2023-06-14T13:29:59;3.00;;;2.75;;
61741;SDS011;47650;49.848;9.620;2023-06-14T13:32:25;4.07;;;3.00;;
61741;SDS011;47650;49.848;9.620;2023-06-14T13:34:50;3.33;;;3.03;;
61741;SDS011;47650;49.848;9.620;2023-06-14T13:37:15;4.45;;;2.78;;
61741;SDS011;47650;49.848;9.620;2023-06-14T13:39:41;3.47;;;3.10;;
61741;SDS011;47650;49.848;9.620;2023-06-14T13:42:06;5.57;;;3.30;;
61741;SDS011;47650;49.848;9.620;2023-06-14T13:44:32;4.20;;;3.50;;
61741;SDS011;47650;49.848;9.620;2023-06-14T13:46:58;6.30;;;3.33;;
61741;SDS011;47650;49.848;9.620;2023-06-14T13:49:24;5.40;;;3.90;;
61741;SDS011;47650;49.848;9.620;2023-06-14T13:51:50;3.17;;;2.87;;
61741;SDS011;47650;49.848;9.620;2023-06-14T13:54:18;4.97;;;3.43;;
61741;SDS011;47650;49.848;9.620;2023-06-14T13:56:45;5.75;;;2.60;;
61741;SDS011;47650;49.848;9.620;2023-06-14T13:59:10;6.07;;;2.65;;
61741;SDS011;47650;49.848;9.620;2023-06-14T14:01:37;3.45;;;2.55;;
61741;SDS011;47650;49.848;9.620;2023-06-14T14:04:02;4.67;;;2.77;;
61741;SDS011;47650;49.848;9.620;2023-06-14T14:06:27;3.10;;;2.78;;
61741;SDS011;47650;49.848;9.620;2023-06-14T14:08:52;3.73;;;3.30;;
61741;SDS011;47650;49.848;9.620;2023-06-14T14:11:19;4.13;;;3.38;;
61741;SDS011;47650;49.848;9.620;2023-06-14T14:13:45;3.78;;;3.28;;
61741;SDS011;47650;49.848;9.620;2023-06-14T14:16:11;9.52;;;3.28;;
61741;SDS011;47650;49.848;9.620;2023-06-14T14:18:39;6.57;;;3.42;;
61741;SDS011;47650;49.848;9.620;2023-06-14T14:21:04;4.65;;;3.35;;
61741;SDS011;47650;49.848;9.620;2023-06-14T14:23:30;4.57;;;2.90;;
61741;SDS011;47650;49.848;9.620;2023-06-14T14:25:55;3.53;;;2.47;;
61741;SDS011;47650;49.848;9.620;2023-06-14T14:28:22;3.42;;;2.20;;
61741;SDS011;47650;49.848;9.620;2023-06-14T14:30:48;3.00;;;2.70;;
61741;SDS011;47650;49.848;9.620;2023-06-14T14:33:14;3.92;;;2.15;;
61741;SDS011;47650;49.848;9.620;2023-06-14T14:35:42;2.35;;;2.15;;
61741;SDS011;47650;49.848;9.620;2023-06-14T14:38:10;4.78;;;2.67;;
61741;SDS011;47650;49.848;9.620;2023-06-14T14:40:37;4.07;;;2.30;;
61741;SDS011;47650;49.848;9.620;2023-06-14T14:43:02;3.15;;;2.50;;
61741;SDS011;47650;49.848;9.620;2023-06-14T14:45:27;5.60;;;2.87;;
61741;SDS011;47650;49.848;9.620;2023-06-14T14:47:53;2.72;;;2.30;;
61741;SDS011;47650;49.848;9.620;2023-06-14T14:50:20;3.08;;;2.40;;
61741;SDS011;47650;49.848;9.620;2023-06-14T14:52:45;5.85;;;2.83;;
61741;SDS011;47650;49.848;9.620;2023-06-14T14:55:11;4.72;;;2.33;;
61741;SDS011;47650;49.848;9.620;2023-06-14T14:57:36;5.05;;;2.60;;
61741;SDS011;47650;49.848;9.620;2023-06-14T15:00:03;2.53;;;2.30;;
61741;SDS011;47650;49.848;9.620;2023-06-14T15:02:32;2.60;;;2.40;;
61741;SDS011;47650;49.848;9.620;2023-06-14T15:04:59;3.30;;;2.58;;
61741;SDS011;47650;49.848;9.620;2023-06-14T15:07:28;2.78;;;2.40;;